Time;durP1;ratioP1;P1;durP2;ratioP2;P2;SDS_P1;SDS_P2;PMS_P1;PMS_P2;Temp;Humidity;BMP_temperature;BMP_pressure;BME280_temperature;BME280_humidity;BME280_pressure;Samples;Min_cycle;Max_cycle;Signal;HPM_P1;HPM_P2
2023/12/05 00:01:10;;;;;;;65.13;23.90;;;-0.50;99.90;;;;;;21060673;28;20416;-75
2023/12/05 00:11:11;;;;;;;58.28;24.02;;;-0.50;99.90;;;;;;21029816;28;20036;-75
2023/12/05 00:21:12;;;;;;;69.80;24.83;;;-0.40;99.90;;;;;;21018044;28;20029;-75
2023/12/05 00:31:13;;;;;;;69.15;24.23;;;-0.30;99.90;;;;;;21034638;28;20024;-75
2023/12/05 00:41:14;;;;;;;61.70;23.90;;;-0.20;99.90;;;;;;21035192;28;20031;-74
2023/12/05 00:51:15;;;;;;;59.10;22.17;;;-0.10;99.90;;;;;;21014759;28;20116;-75
2023/12/05 01:01:19;;;;;;;62.40;23.85;;;-0.10;99.90;;;;;;21041040;28;20124;-76
2023/12/05 01:11:20;;;;;;;66.82;24.00;;;-0.20;99.90;;;;;;21036732;28;20092;-75
2023/12/05 01:21:21;;;;;;;63.92;23.58;;;-0.30;99.90;;;;;;21048833;28;20036;-75
2023/12/05 01:31:22;;;;;;;60.47;23.55;;;-0.50;99.90;;;;;;21031891;28;20503;-74
2023/12/05 01:41:23;;;;;;;66.25;23.52;;;-0.50;99.90;;;;;;21020709;28;20048;-75
2023/12/05 01:51:24;;;;;;;72.20;24.40;;;-0.40;99.90;;;;;;21033718;28;20066;-75
2023/12/05 02:01:25;;;;;;;67.05;24.85;;;-0.40;99.90;;;;;;21057899;28;20515;-75
2023/12/05 02:11:26;;;;;;;59.40;23.40;;;-0.20;99.90;;;;;;21064551;28;20035;-75
2023/12/05 02:21:32;;;;;;;69.78;24.05;;;-0.20;99.90;;;;;;21066332;28;20165;-75
2023/12/05 02:31:33;;;;;;;63.55;22.13;;;0.00;99.90;;;;;;21056874;28;20035;-75
2023/12/05 02:41:38;;;;;;;62.78;21.67;;;0.30;99.90;;;;;;21057620;28;20067;-75
2023/12/05 02:51:40;;;;;;;52.55;22.38;;;0.40;99.90;;;;;;21042388;28;20569;-75
2023/12/05 03:01:41;;;;;;;54.75;21.48;;;0.40;99.90;;;;;;21061635;28;20032;-75
2023/12/05 03:11:42;;;;;;;58.05;22.65;;;0.40;99.90;;;;;;21037308;28;20028;-75
2023/12/05 03:21:43;;;;;;;62.45;24.33;;;0.50;99.90;;;;;;21044478;28;20036;-74
2023/12/05 03:31:44;;;;;;;65.07;23.00;;;0.40;99.90;;;;;;21020741;28;20043;-75
2023/12/05 03:41:46;;;;;;;77.35;27.38;;;0.50;99.90;;;;;;21050622;28;20035;-75
2023/12/05 03:51:46;;;;;;;84.18;27.95;;;0.50;99.90;;;;;;21059169;28;20447;-75
2023/12/05 04:01:47;;;;;;;74.88;25.70;;;0.60;99.90;;;;;;21070259;28;20028;-76
2023/12/05 04:11:48;;;;;;;76.60;25.52;;;0.60;99.90;;;;;;21033372;28;20028;-74
2023/12/05 04:21:48;;;;;;;63.05;22.98;;;0.70;99.90;;;;;;21040447;28;20043;-74
2023/12/05 04:31:49;;;;;;;61.22;24.02;;;0.70;99.90;;;;;;21034087;28;20035;-75
2023/12/05 04:41:50;;;;;;;58.60;23.10;;;0.70;99.90;;;;;;21041765;28;20029;-75
2023/12/05 04:51:51;;;;;;;59.00;23.80;;;0.60;99.90;;;;;;21054986;28;20032;-75
2023/12/05 05:01:53;;;;;;;54.50;21.45;;;0.50;99.90;;;;;;21055802;28;20035;-75
2023/12/05 05:11:54;;;;;;;54.28;20.75;;;0.60;99.90;;;;;;21042258;28;20403;-76
2023/12/05 05:21:54;;;;;;;73.65;25.02;;;0.60;99.90;;;;;;21052354;28;20059;-75
2023/12/05 05:31:55;;;;;;;70.57;25.10;;;0.60;99.90;;;;;;21052492;28;20103;-76
2023/12/05 05:41:56;;;;;;;50.95;19.00;;;0.70;99.90;;;;;;21051295;28;20034;-76
2023/12/05 05:51:56;;;;;;;57.57;21.57;;;0.70;99.90;;;;;;21051836;28;20039;-75
2023/12/05 06:01:57;;;;;;;61.97;22.83;;;0.70;99.90;;;;;;21053482;28;20319;-76
2023/12/05 06:11:58;;;;;;;56.35;21.45;;;0.60;99.90;;;;;;21046862;28;20029;-76
2023/12/05 06:21:59;;;;;;;72.22;26.05;;;0.70;99.90;;;;;;21055699;28;20115;-75
2023/12/05 06:32:00;;;;;;;73.28;25.35;;;0.80;99.90;;;;;;21048393;28;20063;-75
2023/12/05 06:42:01;;;;;;;64.65;23.35;;;0.90;99.90;;;;;;20995098;28;20108;-76
2023/12/05 06:52:02;;;;;;;66.20;24.10;;;0.80;99.90;;;;;;21015072;28;20549;-76
2023/12/05 07:02:03;;;;;;;58.17;22.60;;;0.80;99.90;;;;;;21017447;28;20029;-74
2023/12/05 07:12:05;;;;;;;54.47;20.30;;;0.60;99.90;;;;;;21065837;28;20038;-75
2023/12/05 07:22:05;;;;;;;44.60;16.70;;;0.30;99.90;;;;;;21065612;28;20027;-74
2023/12/05 07:32:06;;;;;;;51.85;16.02;;;0.00;99.90;;;;;;21063975;28;20436;-75
2023/12/05 07:42:07;;;;;;;45.70;18.67;;;0.10;99.90;;;;;;21063891;28;20086;-74
2023/12/05 07:52:07;;;;;;;58.72;19.77;;;0.30;99.90;;;;;;21037796;28;20647;-75
2023/12/05 08:02:08;;;;;;;59.10;22.85;;;0.20;99.90;;;;;;21049723;28;20066;-76
2023/12/05 08:12:09;;;;;;;61.13;22.27;;;0.40;99.90;;;;;;21063041;28;20039;-73
2023/12/05 08:22:10;;;;;;;59.72;21.73;;;0.70;99.90;;;;;;21057827;28;20098;-74
2023/12/05 08:32:11;;;;;;;72.45;26.73;;;1.10;99.90;;;;;;20984855;28;20032;-74
2023/12/05 08:42:12;;;;;;;60.13;24.20;;;1.40;99.90;;;;;;20995517;28;20434;-76
2023/12/05 08:52:13;;;;;;;54.55;19.08;;;1.30;99.90;;;;;;21041548;28;20040;-76
2023/12/05 09:02:13;;;;;;;61.58;24.63;;;1.20;99.90;;;;;;21017090;28;20062;-75
2023/12/05 09:12:15;;;;;;;77.38;32.42;;;2.30;99.90;;;;;;21017878;28;20388;-75
2023/12/05 09:22:16;;;;;;;61.10;25.88;;;2.60;99.90;;;;;;21015068;28;20028;-76
2023/12/05 09:32:17;;;;;;;27.42;13.10;;;2.90;99.90;;;;;;21052982;28;20176;-77
2023/12/05 09:42:19;;;;;;;57.47;25.02;;;2.90;99.90;;;;;;21057402;28;20039;-77
2023/12/05 09:52:22;;;;;;;32.63;15.63;;;5.10;99.90;;;;;;21056195;28;20050;-76
2023/12/05 10:02:24;;;;;;;44.17;19.23;;;6.30;99.90;;;;;;21059242;28;20040;-76
2023/12/05 10:12:25;;;;;;;40.83;19.70;;;6.60;99.90;;;;;;21057215;28;20036;-76
2023/12/05 10:22:26;;;;;;;;;;;6.30;99.90;;;;;;21055864;28;20028;-75
2023/12/05 10:32:27;;;;;;;20.17;11.45;;;5.20;99.90;;;;;;21066783;28;19956;-76
2023/12/05 10:42:29;;;;;;;19.98;8.88;;;5.30;99.90;;;;;;21073484;28;20458;-76
2023/12/05 10:52:31;;;;;;;11.90;6.65;;;5.50;99.90;;;;;;21073199;28;20123;-76
2023/12/05 11:02:36;;;;;;;13.32;6.93;;;7.40;99.90;;;;;;21073079;28;20067;-76
2023/12/05 11:12:39;;;;;;;21.65;12.95;;;10.80;99.90;;;;;;21063437;28;20027;-76
2023/12/05 11:23:02;;;;;;;17.33;9.48;;;9.50;99.90;;;;;;21031771;28;20036;-75
2023/12/05 11:33:15;;;;;;;23.15;11.43;;;7.50;99.90;;;;;;21065186;28;20481;-76
2023/12/05 11:43:16;;;;;;;19.42;10.45;;;7.60;99.90;;;;;;21069417;28;20030;-75
2023/12/05 11:53:18;;;;;;;22.77;10.30;;;8.50;99.90;;;;;;21068091;28;20536;-75
2023/12/05 12:03:19;;;;;;;19.38;10.75;;;7.50;99.90;;;;;;21068759;28;20467;-76
2023/12/05 12:13:21;;;;;;;21.73;11.27;;;6.50;99.90;;;;;;21067504;28;20035;-76
2023/12/05 12:23:22;;;;;;;19.17;9.15;;;9.10;99.90;;;;;;21063362;28;20036;-76
2023/12/05 12:33:28;;;;;;;19.17;10.90;;;12.50;99.90;;;;;;21066218;28;20111;-75
2023/12/05 12:43:29;;;;;;;24.15;11.23;;;12.00;99.90;;;;;;21064788;28;20043;-75
2023/12/05 12:53:30;;;;;;;18.25;9.55;;;10.30;99.90;;;;;;21065693;28;20055;-75
2023/12/05 13:03:32;;;;;;;19.73;9.05;;;10.40;99.90;;;;;;21015196;28;20060;-74
2023/12/05 13:13:33;;;;;;;15.27;8.10;;;10.10;99.90;;;;;;21050377;28;20028;-73
2023/12/05 13:23:33;;;;;;;7.20;1.40;;;10.80;99.90;;;;;;21022420;28;20039;-74
2023/12/05 13:33:34;;;;;;;3.33;1.37;;;8.60;99.90;;;;;;21052258;28;20125;-74
2023/12/05 13:43:35;;;;;;;3.13;0.97;;;8.60;99.90;;;;;;21053614;28;20028;-73
2023/12/05 13:53:36;;;;;;;5.40;1.30;;;8.00;99.90;;;;;;21062346;28;20032;-74
2023/12/05 14:03:36;;;;;;;;;;;7.30;99.90;;;;;;21053536;28;20429;-74
2023/12/05 14:13:37;;;;;;;2.87;1.03;;;7.50;99.90;;;;;;21079610;28;19955;-74
2023/12/05 14:23:38;;;;;;;3.47;0.83;;;7.50;99.90;;;;;;21079783;28;20047;-75
2023/12/05 14:33:39;;;;;;;1.35;0.82;;;6.70;99.90;;;;;;21051474;28;20055;-75
2023/12/05 14:43:40;;;;;;;5.00;0.90;;;6.30;99.90;;;;;;21068818;28;20028;-76
2023/12/05 14:53:40;;;;;;;;;;;6.00;99.90;;;;;;21071294;28;20537;-74
2023/12/05 15:03:41;;;;;;;1.60;1.23;;;5.60;99.90;;;;;;21075716;28;19957;-75
2023/12/05 15:13:42;;;;;;;;;;;5.40;99.90;;;;;;21031432;28;20035;-75
2023/12/05 15:23:43;;;;;;;3.17;1.10;;;5.30;99.90;;;;;;20986120;28;20013;-74
2023/12/05 15:33:44;;;;;;;7.95;1.20;;;5.00;99.90;;;;;;20996101;28;20043;-74
2023/12/05 15:43:45;;;;;;;1.35;1.00;;;4.60;99.90;;;;;;20992975;28;20036;-75
2023/12/05 15:53:46;;;;;;;3.05;1.20;;;4.20;99.90;;;;;;20993214;28;20040;-74
2023/12/05 16:03:47;;;;;;;3.92;1.00;;;4.10;99.90;;;;;;20992754;28;20028;-75
2023/12/05 16:13:48;;;;;;;1.33;1.00;;;3.90;99.90;;;;;;20993180;28;20088;-76
2023/12/05 16:23:48;;;;;;;4.00;1.77;;;3.80;99.90;;;;;;20987998;28;20036;-75
2023/12/05 16:33:49;;;;;;;4.20;2.10;;;3.80;99.90;;;;;;20981026;28;20024;-75
2023/12/05 16:43:51;;;;;;;9.65;1.77;;;3.50;99.90;;;;;;20965897;28;20078;-76
2023/12/05 16:53:52;;;;;;;6.80;2.17;;;3.50;99.90;;;;;;20979038;28;20028;-74
2023/12/05 17:03:52;;;;;;;3.92;2.00;;;3.30;99.90;;;;;;20981229;28;20082;-75
2023/12/05 17:13:53;;;;;;;6.40;2.00;;;3.20;99.90;;;;;;20966181;28;20055;-74
2023/12/05 17:23:54;;;;;;;8.82;1.70;;;3.10;99.90;;;;;;20958084;28;20124;-76
2023/12/05 17:33:56;;;;;;;8.43;2.13;;;3.10;99.90;;;;;;20961064;28;20040;-76
2023/12/05 17:43:56;;;;;;;4.32;2.20;;;3.00;99.90;;;;;;20958639;28;20032;-76
2023/12/05 17:53:57;;;;;;;2.45;1.70;;;2.90;99.90;;;;;;20970501;28;20116;-75
2023/12/05 18:03:58;;;;;;;2.03;1.27;;;2.90;99.90;;;;;;20972502;28;20037;-77
2023/12/05 18:13:59;;;;;;;3.22;1.50;;;2.70;99.90;;;;;;20970391;28;20074;-77
2023/12/05 18:23:59;;;;;;;1.48;1.10;;;2.60;99.90;;;;;;20989752;28;20057;-77
2023/12/05 18:34:00;;;;;;;1.80;1.30;;;2.50;99.90;;;;;;21009069;28;20036;-76
2023/12/05 18:44:01;;;;;;;3.35;1.52;;;2.50;99.90;;;;;;21000641;28;20475;-76
2023/12/05 18:54:02;;;;;;;5.25;2.10;;;2.50;99.90;;;;;;21000738;28;20059;-76
2023/12/05 19:04:03;;;;;;;3.20;1.52;;;2.40;99.90;;;;;;21004958;28;20035;-76
2023/12/05 19:14:04;;;;;;;3.13;1.83;;;2.10;99.90;;;;;;20998133;28;20403;-76
2023/12/05 19:24:05;;;;;;;4.95;2.00;;;2.00;99.90;;;;;;20985833;28;20043;-75
2023/12/05 19:34:06;;;;;;;3.53;1.70;;;2.20;99.90;;;;;;20989889;28;20641;-77
2023/12/05 19:44:10;;;;;;;7.35;1.75;;;2.30;99.90;;;;;;21040372;28;20056;-74
2023/12/05 19:54:10;;;;;;;3.53;1.30;;;2.10;99.90;;;;;;20979942;28;20568;-76
2023/12/05 20:04:11;;;;;;;3.97;1.95;;;2.20;99.90;;;;;;21002769;28;20071;-76
2023/12/05 20:14:12;;;;;;;2.13;1.52;;;2.10;99.90;;;;;;21017016;28;20016;-75
2023/12/05 20:24:13;;;;;;;5.30;2.55;;;2.10;99.90;;;;;;21014819;28;20036;-76
2023/12/05 20:34:13;;;;;;;3.83;1.80;;;2.00;99.90;;;;;;20956678;28;20485;-76
2023/12/05 20:44:14;;;;;;;6.18;3.47;;;2.00;99.90;;;;;;20944689;28;20186;-76
2023/12/05 20:54:15;;;;;;;6.45;3.63;;;2.10;99.90;;;;;;20961166;28;20021;-77
2023/12/05 21:04:16;;;;;;;3.35;1.90;;;2.20;99.90;;;;;;20969950;28;20021;-76
2023/12/05 21:14:16;;;;;;;3.90;1.50;;;2.00;99.90;;;;;;20969722;28;20028;-76
2023/12/05 21:24:17;;;;;;;3.15;2.03;;;1.90;99.90;;;;;;20981797;28;20032;-76
2023/12/05 21:34:18;;;;;;;2.50;1.70;;;1.90;99.90;;;;;;20956210;28;20033;-77
2023/12/05 21:44:19;;;;;;;2.80;1.88;;;2.00;99.90;;;;;;20961456;28;20033;-76
2023/12/05 21:54:19;;;;;;;3.60;2.45;;;1.90;99.90;;;;;;20984769;28;20039;-77
2023/12/05 22:04:20;;;;;;;4.75;2.80;;;1.90;99.90;;;;;;20976311;28;20033;-77
2023/12/05 22:14:21;;;;;;;6.40;3.35;;;1.90;99.90;;;;;;20985125;28;20078;-76
2023/12/05 22:24:21;;;;;;;5.50;3.50;;;1.90;99.90;;;;;;20987686;28;20462;-77
2023/12/05 22:34:22;;;;;;;7.40;3.95;;;2.00;99.90;;;;;;20988796;28;20573;-78
2023/12/05 22:44:23;;;;;;;7.82;4.38;;;1.90;99.90;;;;;;20972439;28;20074;-76
2023/12/05 22:54:24;;;;;;;4.97;3.00;;;1.90;99.90;;;;;;20979057;28;20029;-78
2023/12/05 23:04:24;;;;;;;4.75;2.63;;;1.90;99.90;;;;;;20991914;28;20035;-78
2023/12/05 23:14:25;;;;;;;3.38;1.95;;;2.10;99.90;;;;;;20978125;28;20021;-78
2023/12/05 23:24:26;;;;;;;3.38;2.30;;;2.20;99.90;;;;;;20976832;28;20116;-78
2023/12/05 23:34:26;;;;;;;4.47;2.58;;;2.10;99.90;;;;;;20989190;28;20032;-79
2023/12/05 23:44:29;;;;;;;5.85;2.53;;;2.10;99.90;;;;;;20991559;28;20025;-78
2023/12/05 23:54:30;;;;;;;5.50;2.70;;;2.10;99.90;;;;;;20974044;28;20028;-78
